createdAt,value
2023-02-16T00:01:24.504Z,101556.25
2023-02-16T00:03:53.534Z,101538.72
2023-02-16T00:06:23.344Z,101518.81
2023-02-16T00:08:53.361Z,101533.56
2023-02-16T00:11:42.455Z,101529.19
2023-02-16T00:14:12.368Z,101544.91
2023-02-16T00:16:40.469Z,101491.38
2023-02-16T00:19:23.079Z,101532.91
2023-02-16T00:21:54.651Z,101528.41
2023-02-16T00:24:23.186Z,101517.72
2023-02-16T00:26:51.483Z,101533.13
2023-02-16T00:29:22.387Z,101541.09
2023-02-16T00:31:50.930Z,101534.38
2023-02-16T00:34:28.460Z,101527.84
2023-02-16T00:36:59.707Z,101532.34
2023-02-16T00:39:28.787Z,101504.69
2023-02-16T00:41:59.016Z,101523.00
2023-02-16T00:44:34.342Z,101529.97
2023-02-16T00:47:05.377Z,101521.56
2023-02-16T00:49:33.336Z,101519.88
2023-02-16T00:52:03.011Z,101519.88
2023-02-16T00:54:32.162Z,101521.56
2023-02-16T00:57:00.339Z,101513.03
2023-02-16T00:59:28.358Z,101513.69
2023-02-16T01:01:57.626Z,101499.53
2023-02-16T01:04:25.839Z,101513.91
2023-02-16T01:07:11.642Z,101515.50
2023-02-16T01:09:58.374Z,101489.88
2023-02-16T01:12:26.593Z,101473.56
2023-02-16T01:14:56.536Z,101482.56
2023-02-16T01:17:24.998Z,101473.22
2023-02-16T01:19:53.102Z,101490.19
2023-02-16T01:22:20.890Z,101493.00
2023-02-16T01:24:50.059Z,101483.13
2023-02-16T01:27:18.060Z,101482.56
2023-02-16T01:29:45.902Z,101474.91
2023-02-16T01:32:13.991Z,101486.28
2023-02-16T01:34:42.637Z,101483.56
2023-02-16T01:37:16.130Z,101480.88
2023-02-16T01:39:44.093Z,101475.72
2023-02-16T01:42:29.021Z,101474.03
2023-02-16T01:45:00.516Z,101461.00
2023-02-16T01:47:37.939Z,101461.00
2023-02-16T01:50:17.285Z,101425.13
2023-02-16T01:52:48.875Z,101456.03
2023-02-16T01:55:21.285Z,101453.56
2023-02-16T01:57:53.505Z,101434.69
2023-02-16T02:00:28.723Z,101434.13
2023-02-16T02:03:20.585Z,101431.78
2023-02-16T02:05:49.057Z,101433.78
2023-02-16T02:08:24.995Z,101438.19
2023-02-16T02:11:04.309Z,101434.03
2023-02-16T02:13:41.050Z,101339.56
2023-02-16T02:16:09.875Z,101417.16
2023-02-16T02:18:37.970Z,101418.97
2023-02-16T02:21:55.035Z,101414.78
2023-02-16T02:24:58.055Z,101405.69
2023-02-16T02:27:29.793Z,101381.00
2023-02-16T02:30:18.937Z,101383.00
2023-02-16T02:33:13.401Z,101403.13
2023-02-16T02:35:51.158Z,101405.69
2023-02-16T02:38:26.064Z,101400.53
2023-02-16T02:41:00.616Z,101393.91
2023-02-16T02:43:37.300Z,101375.25
2023-02-16T02:46:11.872Z,101296.53
2023-02-16T02:48:40.099Z,101375.81
2023-02-16T02:51:32.088Z,101376.59
2023-02-16T02:54:24.116Z,101379.19
2023-02-16T02:57:15.011Z,101372.22
2023-02-16T03:00:05.808Z,101366.25
2023-02-16T03:02:35.538Z,101302.59
2023-02-16T03:05:06.778Z,101349.75
2023-02-16T03:07:50.057Z,101363.78
2023-02-16T03:10:38.691Z,101348.28
2023-02-16T03:13:13.012Z,101356.69
2023-02-16T03:15:45.043Z,101354.91
2023-02-16T03:18:31.834Z,101337.63
2023-02-16T03:21:18.699Z,101366.59
2023-02-16T03:24:06.157Z,101360.63
2023-02-16T03:26:52.142Z,101358.06
2023-02-16T03:29:22.611Z,101287.00
2023-02-16T03:31:54.135Z,101345.38
2023-02-16T03:34:23.244Z,101330.78
2023-02-16T03:36:55.000Z,101343.81
2023-02-16T03:39:23.171Z,101349.66
2023-02-16T03:41:53.936Z,101342.47
2023-02-16T03:44:22.527Z,101330.31
2023-02-16T03:46:52.864Z,101340.22
2023-02-16T03:49:21.272Z,101331.00
2023-02-16T03:51:49.397Z,101328.84
2023-02-16T03:54:17.508Z,101330.97
2023-02-16T03:56:45.348Z,101322.78
2023-02-16T03:59:13.171Z,101322.44
2023-02-16T04:01:41.321Z,101322.66
2023-02-16T04:04:10.555Z,101325.13
2023-02-16T04:06:38.508Z,101324.13
2023-02-16T04:09:06.584Z,101314.69
2023-02-16T04:11:51.854Z,101305.03
2023-02-16T04:14:20.098Z,101316.50
2023-02-16T04:16:47.933Z,101313.00
2023-02-16T04:19:17.201Z,101307.72
2023-02-16T04:21:45.173Z,101290.00
2023-02-16T04:24:12.977Z,101290.44
2023-02-16T04:26:40.878Z,101266.50
2023-02-16T04:29:08.970Z,101283.91
2023-02-16T04:31:36.906Z,101291.75
2023-02-16T04:34:05.197Z,101281.31
2023-02-16T04:36:35.491Z,101266.84
2023-02-16T04:39:03.419Z,101290.75
2023-02-16T04:41:31.413Z,101281.66
2023-02-16T04:43:59.520Z,101212.44
2023-02-16T04:46:27.617Z,101260.78
2023-02-16T04:48:55.478Z,101280.31
2023-02-16T04:51:23.468Z,101290.66
2023-02-16T04:53:52.651Z,101279.41
2023-02-16T04:56:20.540Z,101285.47
2023-02-16T04:58:48.542Z,101282.09
2023-02-16T05:01:20.491Z,101286.59
2023-02-16T05:03:48.488Z,101267.06
2023-02-16T05:06:16.942Z,101251.59
2023-02-16T05:08:44.912Z,101277.84
2023-02-16T05:11:31.777Z,101270.75
2023-02-16T05:14:17.896Z,101274.13
2023-02-16T05:16:46.805Z,101242.63
2023-02-16T05:19:14.899Z,101268.84
2023-02-16T05:21:42.866Z,101216.34
2023-02-16T05:24:12.981Z,101263.38
2023-02-16T05:26:42.322Z,101258.97
2023-02-16T05:29:10.252Z,101250.00
2023-02-16T05:31:38.980Z,101242.81
2023-02-16T05:34:06.937Z,101259.00
2023-02-16T05:36:34.806Z,101253.41
2023-02-16T05:39:03.092Z,101231.19
2023-02-16T05:41:31.034Z,101243.63
2023-02-16T05:44:02.264Z,101225.59
2023-02-16T05:46:32.880Z,101240.38
2023-02-16T05:49:01.538Z,101240.28
2023-02-16T05:51:29.713Z,101235.00
2023-02-16T05:53:57.949Z,101234.09
2023-02-16T05:56:25.905Z,101229.63
2023-02-16T05:58:54.291Z,101236.78
2023-02-16T06:01:23.808Z,101222.31
2023-02-16T06:03:52.613Z,101158.28
2023-02-16T06:06:20.988Z,101220.50
2023-02-16T06:08:49.053Z,101200.75
2023-02-16T06:11:34.667Z,101210.16
2023-02-16T06:14:03.283Z,101204.22
2023-02-16T06:16:34.999Z,101206.91
2023-02-16T06:19:03.674Z,101203.53
2023-02-16T06:21:32.310Z,101094.44
2023-02-16T06:24:00.227Z,101193.88
2023-02-16T06:26:28.508Z,101184.22
2023-02-16T06:28:56.643Z,101164.97
2023-02-16T06:31:25.329Z,101186.06
2023-02-16T06:33:56.835Z,101192.56
2023-02-16T06:36:25.786Z,101199.50
2023-02-16T06:38:53.613Z,101202.22
2023-02-16T06:41:32.395Z,101197.03
2023-02-16T06:44:01.471Z,101211.63
2023-02-16T06:46:29.685Z,101213.31
2023-02-16T06:48:59.278Z,101205.56
2023-02-16T06:51:27.726Z,101207.16
2023-02-16T06:53:55.673Z,101204.72
2023-02-16T06:56:23.864Z,101221.66
2023-02-16T06:58:52.319Z,101212.31
2023-02-16T07:01:23.422Z,101211.75
2023-02-16T07:03:51.832Z,101159.03
2023-02-16T07:06:21.498Z,101203.31
2023-02-16T07:08:49.491Z,101196.56
2023-02-16T07:11:19.340Z,101167.97
2023-02-16T07:13:47.355Z,101195.31
2023-02-16T07:16:15.934Z,101180.19
2023-02-16T07:18:43.984Z,101186.09
2023-02-16T07:21:11.942Z,101191.47
2023-02-16T07:23:41.386Z,101195.19
2023-02-16T07:26:09.362Z,101183.25
2023-02-16T07:28:37.308Z,101184.25
2023-02-16T07:31:09.654Z,101181.88
2023-02-16T07:33:38.304Z,101108.00
2023-02-16T07:36:07.113Z,101163.00
2023-02-16T07:38:35.298Z,101170.97
2023-02-16T07:41:08.607Z,101177.94
2023-02-16T07:43:37.941Z,101177.16
2023-02-16T07:46:06.685Z,101179.16
2023-02-16T07:48:34.746Z,101167.13
2023-02-16T07:51:03.409Z,101166.34
2023-02-16T07:53:31.635Z,101144.03
2023-02-16T07:55:59.514Z,100982.94
2023-02-16T07:58:28.934Z,101130.72
2023-02-16T08:00:57.968Z,101154.81
2023-02-16T08:03:25.879Z,101164.69
2023-02-16T08:05:53.949Z,101164.91
2023-02-16T08:08:21.889Z,101154.66
2023-02-16T08:10:49.732Z,101160.25
2023-02-16T08:13:17.763Z,101153.19
2023-02-16T08:15:47.015Z,101156.66
2023-02-16T08:18:15.268Z,101158.13
2023-02-16T08:21:01.550Z,101156.34
2023-02-16T08:23:31.650Z,101159.25
2023-02-16T08:26:00.112Z,101151.78
2023-02-16T08:28:29.437Z,101154.50
2023-02-16T08:31:03.661Z,101148.63
2023-02-16T08:33:31.606Z,101146.84
2023-02-16T08:35:59.678Z,101099.94
2023-02-16T08:38:27.508Z,101158.97
2023-02-16T08:40:56.052Z,101138.06
2023-02-16T08:43:23.859Z,101141.06
2023-02-16T08:45:52.038Z,101137.78
2023-02-16T08:48:21.497Z,101133.63
2023-02-16T08:50:53.962Z,101133.94
2023-02-16T08:53:23.281Z,101124.47
2023-02-16T08:55:55.813Z,101132.53
2023-02-16T08:58:24.509Z,101132.16
2023-02-16T09:00:52.609Z,101110.84
2023-02-16T09:03:21.978Z,101115.63
2023-02-16T09:05:51.372Z,101117.03
2023-02-16T09:08:19.664Z,101105.88
2023-02-16T09:10:47.734Z,101029.19
2023-02-16T09:13:16.263Z,101089.34
2023-02-16T09:15:44.933Z,101113.84
2023-02-16T09:18:14.188Z,101093.78
2023-02-16T09:20:46.890Z,101094.25
2023-02-16T09:23:15.020Z,101091.88
2023-02-16T09:25:43.041Z,101062.91
2023-02-16T09:28:12.005Z,101085.97
2023-02-16T09:30:40.481Z,101084.91
2023-02-16T09:33:08.667Z,101075.94
2023-02-16T09:35:39.109Z,101086.22
2023-02-16T09:38:08.918Z,101084.69
2023-02-16T09:40:37.824Z,101084.91
2023-02-16T09:43:09.840Z,101082.91
2023-02-16T09:45:44.937Z,101054.09
2023-02-16T09:48:23.966Z,101085.78
2023-02-16T09:50:55.653Z,101081.50
2023-02-16T09:53:36.141Z,100907.66
2023-02-16T09:56:17.039Z,101069.75
2023-02-16T09:58:50.547Z,101060.28
2023-02-16T10:01:29.108Z,101063.53
2023-02-16T10:04:06.743Z,101064.72
2023-02-16T10:06:58.580Z,101062.31
2023-02-16T10:09:30.207Z,101000.56
2023-02-16T10:12:05.568Z,101024.59
2023-02-16T10:14:41.296Z,101053.59
2023-02-16T10:17:18.386Z,101053.34
2023-02-16T10:19:51.105Z,101054.63
2023-02-16T10:22:32.562Z,101045.94
2023-02-16T10:25:04.706Z,101038.63
2023-02-16T10:27:39.178Z,101026.84
2023-02-16T10:30:15.688Z,101018.97
2023-02-16T10:32:56.209Z,101023.63
2023-02-16T10:35:33.220Z,101033.81
2023-02-16T10:38:08.434Z,101005.31
2023-02-16T10:40:48.326Z,101025.34
2023-02-16T10:43:21.634Z,101018.34
2023-02-16T10:45:52.759Z,100997.88
2023-02-16T10:48:21.951Z,101017.91
2023-02-16T10:50:58.885Z,100985.38
2023-02-16T10:53:38.216Z,101021.41
2023-02-16T10:56:39.796Z,101018.72
2023-02-16T10:59:13.863Z,101022.03
2023-02-16T11:01:46.895Z,101023.00
2023-02-16T11:04:36.710Z,101012.38
2023-02-16T11:07:08.531Z,101021.47
2023-02-16T11:09:37.706Z,100989.56
2023-02-16T11:12:18.003Z,101025.16
2023-02-16T11:14:51.599Z,101017.38
2023-02-16T11:17:22.526Z,101020.41
2023-02-16T11:19:53.987Z,101013.59
2023-02-16T11:22:32.537Z,101010.94
2023-02-16T11:25:21.455Z,100955.41
2023-02-16T11:27:57.234Z,101005.81
2023-02-16T11:30:32.518Z,100928.00
2023-02-16T11:33:03.337Z,101006.91
2023-02-16T11:35:32.927Z,101007.63
2023-02-16T11:38:01.306Z,101005.91
2023-02-16T11:40:33.144Z,101002.69
2023-02-16T11:43:03.611Z,101002.94
2023-02-16T11:45:34.681Z,101004.03
2023-02-16T11:48:07.287Z,101005.09
2023-02-16T11:50:38.776Z,101008.75
2023-02-16T11:53:16.439Z,101005.53
2023-02-16T11:55:46.338Z,100964.59
2023-02-16T11:58:17.986Z,100995.56
2023-02-16T12:00:57.880Z,100989.22
2023-02-16T12:04:01.448Z,101001.50
2023-02-16T12:06:40.825Z,100964.41
2023-02-16T12:09:21.204Z,100990.50
2023-02-16T12:12:02.611Z,100999.78
2023-02-16T12:14:50.156Z,100981.28
2023-02-16T12:17:28.012Z,101000.84
2023-02-16T12:20:04.181Z,100960.19
2023-02-16T12:22:41.177Z,100999.31
2023-02-16T12:25:26.665Z,100998.34
2023-02-16T12:28:02.735Z,100770.88
2023-02-16T12:30:46.673Z,100996.97
2023-02-16T12:33:33.429Z,100816.28
2023-02-16T12:36:23.065Z,100993.03
2023-02-16T12:39:03.265Z,100976.47
2023-02-16T12:41:45.706Z,100982.09
2023-02-16T12:44:19.335Z,100979.50
2023-02-16T12:46:52.041Z,100937.16
2023-02-16T12:49:25.715Z,100979.50
2023-02-16T12:51:59.309Z,100946.59
2023-02-16T12:54:31.428Z,100947.66
2023-02-16T12:57:04.684Z,100966.59
2023-02-16T12:59:40.038Z,100950.19
2023-02-16T13:02:19.224Z,100977.31
2023-02-16T13:04:51.087Z,100967.91
2023-02-16T13:07:26.529Z,100965.38
2023-02-16T13:10:01.358Z,100962.06
2023-02-16T13:12:35.829Z,100966.53
2023-02-16T13:15:12.771Z,100962.06
2023-02-16T13:17:48.369Z,100972.94
2023-02-16T13:20:18.300Z,100933.19
2023-02-16T13:23:11.554Z,100906.38
2023-02-16T13:26:11.624Z,100963.63
2023-02-16T13:29:03.238Z,100944.88
2023-02-16T13:31:43.868Z,100954.59
2023-02-16T13:34:46.672Z,100961.59
2023-02-16T13:37:25.266Z,100963.69
2023-02-16T13:40:14.897Z,100970.34
2023-02-16T13:43:04.441Z,100956.97
2023-02-16T13:45:35.606Z,100965.16
2023-02-16T13:48:03.526Z,100967.91
2023-02-16T13:50:35.763Z,100935.03
2023-02-16T13:53:19.745Z,100960.38
2023-02-16T13:55:52.874Z,100941.63
2023-02-16T13:58:33.558Z,100963.06
2023-02-16T14:01:38.900Z,100956.97
2023-02-16T14:04:11.980Z,100952.34
2023-02-16T14:06:43.952Z,100950.88
2023-02-16T14:09:34.965Z,100956.88
2023-02-16T14:12:05.675Z,100955.09
2023-02-16T14:14:36.457Z,100951.53
2023-02-16T14:17:17.882Z,100955.91
2023-02-16T14:19:55.918Z,100909.66
2023-02-16T14:22:34.116Z,100946.41
2023-02-16T14:25:05.446Z,100947.31
2023-02-16T14:27:48.883Z,100943.09
2023-02-16T14:30:23.261Z,100914.44
2023-02-16T14:32:57.806Z,100947.31
2023-02-16T14:35:30.195Z,100930.50
2023-02-16T14:38:01.765Z,100945.53
2023-02-16T14:40:48.838Z,100945.69
2023-02-16T14:43:29.415Z,100944.78
2023-02-16T14:46:13.775Z,100890.91
2023-02-16T14:49:13.173Z,100952.66
2023-02-16T14:52:17.138Z,100950.88
2023-02-16T14:55:17.492Z,100947.38
2023-02-16T14:57:51.965Z,100927.75
2023-02-16T15:00:25.038Z,100875.16
2023-02-16T15:02:58.300Z,100943.91
2023-02-16T15:05:33.039Z,100948.28
2023-02-16T15:08:09.526Z,100946.56
2023-02-16T15:10:40.736Z,100944.06
2023-02-16T15:13:09.822Z,100914.75
2023-02-16T15:15:47.189Z,100943.25
2023-02-16T15:18:18.306Z,100929.38
2023-02-16T15:20:49.472Z,100935.47
2023-02-16T15:23:20.793Z,100930.25
2023-02-16T15:26:00.204Z,100928.56
2023-02-16T15:28:29.495Z,100918.16
2023-02-16T15:30:59.398Z,100926.03
2023-02-16T15:33:33.824Z,100932.06
2023-02-16T15:36:04.080Z,100912.31
2023-02-16T15:38:34.601Z,100903.00
2023-02-16T15:41:06.721Z,100925.06
2023-02-16T15:43:38.691Z,100934.66
2023-02-16T15:46:08.964Z,100923.38
2023-02-16T15:48:38.362Z,100911.69
2023-02-16T15:51:15.377Z,100919.72
2023-02-16T15:53:48.936Z,100911.69
2023-02-16T15:56:32.915Z,100890.91
2023-02-16T15:59:02.732Z,100920.44
2023-02-16T16:01:37.571Z,100917.94
2023-02-16T16:04:09.435Z,100924.75
2023-02-16T16:06:41.142Z,100915.97
2023-02-16T16:09:20.988Z,100750.75
2023-02-16T16:11:51.950Z,100915.81
2023-02-16T16:14:20.650Z,100916.38
2023-02-16T16:16:48.762Z,100915.50
2023-02-16T16:19:20.281Z,100906.72
2023-02-16T16:21:54.489Z,100917.44
2023-02-16T16:24:34.136Z,100903.00
2023-02-16T16:27:06.544Z,100923.44
2023-02-16T16:29:37.607Z,100888.72
2023-02-16T16:32:06.880Z,100910.47
2023-02-16T16:34:38.625Z,100869.41
2023-02-16T16:37:08.393Z,100902.50
2023-02-16T16:39:41.115Z,100878.00
2023-02-16T16:42:20.752Z,100852.84
2023-02-16T16:45:00.958Z,100890.59
2023-02-16T16:47:33.055Z,100896.81
2023-02-16T16:50:04.054Z,100888.22
2023-02-16T16:52:43.751Z,100886.53
2023-02-16T16:55:38.889Z,100884.91
2023-02-16T16:58:09.026Z,100863.63
2023-02-16T17:00:38.729Z,100884.91
2023-02-16T17:03:08.506Z,100881.41
2023-02-16T17:05:38.444Z,100890.91
2023-02-16T17:08:06.362Z,100877.44
2023-02-16T17:10:36.200Z,100888.22
2023-02-16T17:13:04.492Z,100885.53
2023-02-16T17:15:41.336Z,100817.97
2023-02-16T17:18:15.917Z,100883.84
2023-02-16T17:20:44.132Z,100864.06
2023-02-16T17:23:12.761Z,100879.47
2023-02-16T17:25:41.346Z,100832.91
2023-02-16T17:28:10.438Z,100866.66
2023-02-16T17:30:40.111Z,100848.97
2023-02-16T17:33:09.594Z,100816.03
2023-02-16T17:35:39.402Z,100844.59
2023-02-16T17:38:11.759Z,100867.78
2023-02-16T17:40:41.441Z,100863.47
2023-02-16T17:43:14.330Z,100870.84
2023-02-16T17:45:45.150Z,100835.34
2023-02-16T17:48:17.473Z,100862.25
2023-02-16T17:50:45.832Z,100876.06
2023-02-16T17:53:15.115Z,100857.16
2023-02-16T17:55:43.071Z,100870.84
2023-02-16T17:58:11.428Z,100845.16
2023-02-16T18:00:39.755Z,100817.50
2023-02-16T18:03:09.808Z,100862.25
2023-02-16T18:05:38.056Z,100869.22
2023-02-16T18:08:06.633Z,100863.22
2023-02-16T18:10:37.395Z,100859.81
2023-02-16T18:13:05.895Z,100863.38
2023-02-16T18:15:34.805Z,100860.88
2023-02-16T18:18:02.716Z,100856.56
2023-02-16T18:20:32.084Z,100858.34
2023-02-16T18:23:00.236Z,100863.63
2023-02-16T18:25:28.200Z,100842.22
2023-02-16T18:27:56.139Z,100844.16
2023-02-16T18:30:24.955Z,100859.25
2023-02-16T18:32:52.796Z,100854.94
2023-02-16T18:35:21.357Z,100833.53
2023-02-16T18:37:50.964Z,100794.94
2023-02-16T18:40:21.324Z,100852.03
2023-02-16T18:42:49.384Z,100848.78
2023-02-16T18:45:17.767Z,100844.31
2023-02-16T18:47:45.805Z,100850.25
2023-02-16T18:50:13.992Z,100849.34
2023-02-16T18:52:43.458Z,100801.19
2023-02-16T18:55:13.672Z,100840.50
2023-02-16T18:57:41.669Z,100852.59
2023-02-16T19:00:12.150Z,100841.97
2023-02-16T19:02:41.012Z,100845.63
2023-02-16T19:05:09.485Z,100837.75
2023-02-16T19:07:37.571Z,100821.69
2023-02-16T19:10:08.437Z,100841.97
2023-02-16T19:12:39.133Z,100849.75
2023-02-16T19:15:07.690Z,100808.00
2023-02-16T19:17:36.316Z,100819.28
2023-02-16T19:20:04.890Z,100841.75
2023-02-16T19:22:33.725Z,100855.94
2023-02-16T19:25:01.665Z,100832.97
2023-02-16T19:27:29.773Z,100824.38
2023-02-16T19:29:59.028Z,100839.38
2023-02-16T19:32:26.987Z,100839.22
2023-02-16T19:34:55.212Z,100843.53
2023-02-16T19:37:23.043Z,100841.50
2023-02-16T19:39:51.027Z,100824.78
2023-02-16T19:42:19.158Z,100843.44
2023-02-16T19:44:46.959Z,100802.56
2023-02-16T19:47:16.219Z,100819.34
2023-02-16T19:49:44.234Z,100836.22
2023-02-16T19:52:12.107Z,100824.63
2023-02-16T19:54:40.043Z,100788.88
2023-02-16T19:57:08.140Z,100838.81
2023-02-16T19:59:36.242Z,100832.91
2023-02-16T20:02:04.124Z,100830.13
2023-02-16T20:04:33.891Z,100826.88
2023-02-16T20:07:01.978Z,100831.28
2023-02-16T20:09:30.720Z,100821.69
2023-02-16T20:11:58.750Z,100816.91
2023-02-16T20:14:27.850Z,100819.19
2023-02-16T20:16:55.761Z,100820.88
2023-02-16T20:19:23.798Z,100811.97
2023-02-16T20:21:53.008Z,100820.06
2023-02-16T20:24:20.880Z,100786.34
2023-02-16T20:26:52.115Z,100814.72
2023-02-16T20:29:21.013Z,100667.69
2023-02-16T20:31:51.761Z,100807.59
2023-02-16T20:34:20.347Z,100800.44
2023-02-16T20:36:48.282Z,100755.63
2023-02-16T20:39:17.583Z,100802.88
2023-02-16T20:41:45.638Z,100800.13
2023-02-16T20:44:13.988Z,100802.66
2023-02-16T20:46:42.243Z,100806.78
2023-02-16T20:49:10.635Z,100785.06
2023-02-16T20:51:38.798Z,100744.78
2023-02-16T20:54:07.030Z,100809.88
2023-02-16T20:56:36.407Z,100805.34
2023-02-16T20:59:05.642Z,100813.84
2023-02-16T21:01:37.221Z,100815.31
2023-02-16T21:04:07.481Z,100801.91
2023-02-16T21:06:36.721Z,100815.06
2023-02-16T21:09:05.672Z,100814.00
2023-02-16T21:11:33.989Z,100815.53
2023-02-16T21:14:03.307Z,100808.56
2023-02-16T21:16:31.918Z,100819.75
2023-02-16T21:19:00.008Z,100768.09
2023-02-16T21:21:28.075Z,100805.72
2023-02-16T21:23:56.862Z,100803.84
2023-02-16T21:26:26.720Z,100793.41
2023-02-16T21:28:54.686Z,100779.69
2023-02-16T21:31:26.840Z,100721.00
2023-02-16T21:33:55.506Z,100794.38
2023-02-16T21:36:25.925Z,100746.22
2023-02-16T21:38:54.163Z,100752.78
2023-02-16T21:41:25.314Z,100789.09
2023-02-16T21:44:00.770Z,100776.88
2023-02-16T21:46:32.535Z,100724.50
2023-02-16T21:48:59.770Z,100781.56
2023-02-16T21:51:29.630Z,100756.75
2023-02-16T21:53:58.900Z,100778.16
2023-02-16T21:56:33.243Z,100778.41
2023-02-16T21:59:02.211Z,100772.81
2023-02-16T22:01:34.698Z,100779.88
2023-02-16T22:04:03.439Z,100779.22
2023-02-16T22:06:42.897Z,100666.16
2023-02-16T22:09:14.371Z,100765.69
2023-02-16T22:11:42.880Z,100768.34
2023-02-16T22:14:11.226Z,100764.78
2023-02-16T22:16:41.547Z,100711.53
2023-02-16T22:19:13.172Z,100765.91
2023-02-16T22:21:44.046Z,100760.50
2023-02-16T22:24:14.564Z,100764.06
2023-02-16T22:26:42.903Z,100762.19
2023-02-16T22:29:11.851Z,100739.16
2023-02-16T22:31:45.601Z,100754.25
2023-02-16T22:34:15.992Z,100757.66
2023-02-16T22:36:44.576Z,100757.50
2023-02-16T22:39:14.196Z,100753.03
2023-02-16T22:41:42.508Z,100752.06
2023-02-16T22:44:11.852Z,100743.47
2023-02-16T22:46:41.481Z,100748.09
2023-02-16T22:49:11.188Z,100746.00
2023-02-16T22:51:39.804Z,100744.84
2023-02-16T22:54:08.193Z,100744.53
2023-02-16T22:56:36.800Z,100742.66
2023-02-16T22:59:04.905Z,100730.75
2023-02-16T23:01:33.904Z,100732.53
2023-02-16T23:04:04.059Z,100737.38
2023-02-16T23:06:33.920Z,100715.91
2023-02-16T23:09:05.055Z,100729.03
2023-02-16T23:11:33.939Z,100704.53
2023-02-16T23:14:02.295Z,100728.78
2023-02-16T23:16:30.653Z,100736.38
2023-02-16T23:19:00.687Z,100727.53
2023-02-16T23:21:32.427Z,100687.59
2023-02-16T23:24:01.515Z,100718.63
2023-02-16T23:26:32.015Z,100713.34
2023-02-16T23:29:02.783Z,100706.38
2023-02-16T23:31:33.798Z,100708.91
2023-02-16T23:34:02.895Z,100670.66
2023-02-16T23:36:33.054Z,100698.94
2023-02-16T23:39:01.729Z,100696.59
2023-02-16T23:41:30.094Z,100707.75
2023-02-16T23:44:00.661Z,100692.13
2023-02-16T23:46:29.658Z,100698.03
2023-02-16T23:48:58.389Z,100699.91
2023-02-16T23:51:27.352Z,100674.50
2023-02-16T23:53:57.234Z,100697.13
2023-02-16T23:56:28.393Z,100701.44
2023-02-16T23:58:58.723Z,100691.78
